createdAt,value
2022-10-26T00:03:00.460Z,3.17
2022-10-26T00:08:02.247Z,3.08
2022-10-26T00:13:05.293Z,3.30
2022-10-26T00:18:06.830Z,3.15
2022-10-26T00:23:08.595Z,3.28
2022-10-26T00:28:10.110Z,3.67
2022-10-26T00:33:13.518Z,2.90
2022-10-26T00:38:15.266Z,3.40
2022-10-26T00:43:34.390Z,3.03
2022-10-26T00:48:38.680Z,3.15
2022-10-26T00:53:40.347Z,3.08
2022-10-26T00:58:42.419Z,3.03
2022-10-26T01:03:45.034Z,3.40
2022-10-26T01:08:46.639Z,3.17
2022-10-26T01:13:48.785Z,3.05
2022-10-26T01:18:52.926Z,3.25
2022-10-26T01:24:09.407Z,3.22
2022-10-26T01:29:40.315Z,3.53
2022-10-26T01:34:48.944Z,3.17
2022-10-26T01:40:16.774Z,3.33
2022-10-26T01:45:18.803Z,3.70
2022-10-26T01:50:20.712Z,3.22
2022-10-26T01:55:40.966Z,3.15
2022-10-26T02:00:52.311Z,3.13
2022-10-26T02:06:23.263Z,3.17
2022-10-26T02:11:37.219Z,2.60
2022-10-26T02:16:49.565Z,3.30
2022-10-26T02:21:55.065Z,3.70
2022-10-26T02:26:57.071Z,3.40
2022-10-26T02:31:59.491Z,3.38
2022-10-26T02:37:02.421Z,3.47
2022-10-26T02:42:05.595Z,3.28
2022-10-26T02:47:07.211Z,3.63
2022-10-26T02:52:18.588Z,3.42
2022-10-26T02:57:40.223Z,2.90
2022-10-26T03:02:46.171Z,3.50
2022-10-26T03:07:50.020Z,3.60
2022-10-26T03:12:52.406Z,3.40
2022-10-26T03:17:54.026Z,3.50
2022-10-26T03:22:57.051Z,3.80
2022-10-26T03:28:00.480Z,3.72
2022-10-26T03:33:01.976Z,3.88
2022-10-26T03:38:03.526Z,4.13
2022-10-26T03:43:05.054Z,3.80
2022-10-26T03:48:06.601Z,3.78
2022-10-26T03:53:08.502Z,4.18
2022-10-26T03:58:10.087Z,3.80
2022-10-26T04:03:11.582Z,3.97
2022-10-26T04:08:13.165Z,3.92
2022-10-26T04:13:14.738Z,3.85
2022-10-26T04:18:16.314Z,4.20
2022-10-26T04:23:18.948Z,3.78
2022-10-26T04:28:21.486Z,4.13
2022-10-26T04:33:23.014Z,4.25
2022-10-26T04:38:24.494Z,3.92
2022-10-26T04:43:26.005Z,4.45
2022-10-26T04:48:27.521Z,4.72
2022-10-26T04:53:29.015Z,3.92
2022-10-26T04:58:30.715Z,4.75
2022-10-26T05:03:32.214Z,4.50
2022-10-26T05:08:33.731Z,4.40
2022-10-26T05:13:35.211Z,4.53
2022-10-26T05:18:36.874Z,4.75
2022-10-26T05:23:38.405Z,4.47
2022-10-26T05:28:39.884Z,4.30
2022-10-26T05:33:41.384Z,4.53
2022-10-26T05:38:42.876Z,4.72
2022-10-26T05:43:47.285Z,4.85
2022-10-26T05:48:48.778Z,4.72
2022-10-26T05:53:54.278Z,5.18
2022-10-26T05:58:56.035Z,4.55
2022-10-26T06:04:07.649Z,5.07
2022-10-26T06:09:11.450Z,4.85
2022-10-26T06:14:13.174Z,8.27
2022-10-26T06:19:17.301Z,5.38
2022-10-26T06:24:41.502Z,4.88
2022-10-26T06:30:02.178Z,4.90
2022-10-26T06:35:25.300Z,5.10
2022-10-26T06:40:27.027Z,5.15
2022-10-26T06:45:29.069Z,5.75
2022-10-26T06:50:38.493Z,5.55
2022-10-26T06:55:44.640Z,5.25
2022-10-26T07:00:48.575Z,5.60
2022-10-26T07:05:50.137Z,5.88
2022-10-26T07:10:51.695Z,5.68
2022-10-26T07:15:53.239Z,5.72
2022-10-26T07:20:54.768Z,5.70
2022-10-26T07:25:59.535Z,5.10
2022-10-26T07:31:01.171Z,5.72
2022-10-26T07:36:02.854Z,5.47
2022-10-26T07:41:04.901Z,5.72
2022-10-26T07:46:06.406Z,5.10
2022-10-26T07:51:08.381Z,6.07
2022-10-26T07:56:10.694Z,5.75
2022-10-26T08:01:13.962Z,6.20
2022-10-26T08:06:15.531Z,6.32
2022-10-26T08:11:17.460Z,5.50
2022-10-26T08:16:19.159Z,5.97
2022-10-26T08:21:35.738Z,5.68
2022-10-26T08:26:38.017Z,6.20
2022-10-26T08:31:39.550Z,5.72
2022-10-26T08:36:41.122Z,5.50
2022-10-26T08:41:46.864Z,5.65
2022-10-26T08:46:53.459Z,5.82
2022-10-26T08:52:00.460Z,6.10
2022-10-26T08:57:10.234Z,5.28
2022-10-26T09:02:16.528Z,5.97
2022-10-26T09:07:25.940Z,5.68
2022-10-26T09:12:47.776Z,5.50
2022-10-26T09:18:26.414Z,5.45
2022-10-26T09:23:48.142Z,5.35
2022-10-26T09:28:49.745Z,5.35
2022-10-26T09:33:51.718Z,5.38
2022-10-26T09:39:17.590Z,5.13
2022-10-26T09:44:34.929Z,5.35
2022-10-26T09:49:48.660Z,5.32
2022-10-26T09:54:50.292Z,5.70
2022-10-26T09:59:52.603Z,5.65
2022-10-26T10:04:54.238Z,6.25
2022-10-26T10:10:27.836Z,5.43
2022-10-26T10:15:29.332Z,4.95
2022-10-26T10:20:32.462Z,5.68
2022-10-26T10:25:36.217Z,5.30
2022-10-26T10:30:37.997Z,4.97
2022-10-26T10:35:48.338Z,5.05
2022-10-26T10:41:02.536Z,4.72
2022-10-26T10:46:04.191Z,3.83
2022-10-26T10:51:12.999Z,5.20
2022-10-26T10:56:34.156Z,4.72
2022-10-26T11:01:40.762Z,3.95
2022-10-26T11:06:43.571Z,3.42
2022-10-26T11:11:48.279Z,3.92
2022-10-26T11:16:56.192Z,3.55
2022-10-26T11:21:57.729Z,3.58
2022-10-26T11:27:18.114Z,2.90
2022-10-26T11:32:23.161Z,3.00
2022-10-26T11:37:37.658Z,2.40
2022-10-26T11:42:51.258Z,2.42
2022-10-26T11:47:57.464Z,2.20
2022-10-26T11:53:09.362Z,2.38
2022-10-26T11:58:11.762Z,2.22
2022-10-26T12:03:17.422Z,2.70
2022-10-26T12:08:24.598Z,2.42
2022-10-26T12:13:47.849Z,2.22
2022-10-26T12:18:56.768Z,3.30
2022-10-26T12:24:04.959Z,2.13
2022-10-26T12:29:06.373Z,1.60
2022-10-26T12:34:15.793Z,1.73
2022-10-26T12:39:40.608Z,1.30
2022-10-26T12:44:48.342Z,0.90
2022-10-26T12:50:19.687Z,1.30
2022-10-26T12:55:51.319Z,1.85
2022-10-26T13:01:08.716Z,1.33
2022-10-26T13:06:41.190Z,1.30
2022-10-26T13:11:51.621Z,1.40
2022-10-26T13:16:53.277Z,1.50
2022-10-26T13:21:58.337Z,1.27
2022-10-26T13:27:05.577Z,1.50
2022-10-26T13:32:07.110Z,8.00
2022-10-26T13:37:21.692Z,26.23
2022-10-26T13:42:27.728Z,3.90
2022-10-26T13:47:33.425Z,4.45
2022-10-26T13:52:41.365Z,1.58
2022-10-26T13:57:44.486Z,1.40
2022-10-26T14:02:46.012Z,1.30
2022-10-26T14:08:00.113Z,1.10
2022-10-26T14:13:07.566Z,1.13
2022-10-26T14:18:15.985Z,1.00
2022-10-26T14:23:47.291Z,1.00
2022-10-26T14:28:51.565Z,2.45
2022-10-26T14:33:54.383Z,2.88
2022-10-26T14:39:04.505Z,2.58
2022-10-26T14:44:16.636Z,2.95
2022-10-26T14:49:25.068Z,2.78
2022-10-26T14:54:28.308Z,2.70
2022-10-26T14:59:31.159Z,2.88
2022-10-26T15:04:37.599Z,2.63
2022-10-26T15:09:41.747Z,3.00
2022-10-26T15:14:43.385Z,3.40
2022-10-26T15:19:45.201Z,3.17
2022-10-26T15:24:51.827Z,3.40
2022-10-26T15:30:16.545Z,3.65
2022-10-26T15:35:18.009Z,3.67
2022-10-26T15:40:19.872Z,3.47
2022-10-26T15:45:26.860Z,3.70
2022-10-26T15:50:28.884Z,4.35
2022-10-26T15:55:30.607Z,4.00
2022-10-26T16:00:32.075Z,4.47
2022-10-26T16:05:33.596Z,4.97
2022-10-26T16:10:35.107Z,4.88
2022-10-26T16:15:37.009Z,4.68
2022-10-26T16:20:38.615Z,4.93
2022-10-26T16:25:43.938Z,4.78
2022-10-26T16:30:45.580Z,5.50
2022-10-26T16:35:55.454Z,6.07
2022-10-26T16:41:17.066Z,5.18
2022-10-26T16:46:20.200Z,5.85
2022-10-26T16:51:23.639Z,6.20
2022-10-26T16:56:27.715Z,6.10
2022-10-26T17:01:29.449Z,6.35
2022-10-26T17:06:31.039Z,6.45
2022-10-26T17:11:32.628Z,6.32
2022-10-26T17:16:36.986Z,6.18
2022-10-26T17:21:38.557Z,6.55
2022-10-26T17:26:40.687Z,6.97
2022-10-26T17:31:42.230Z,6.85
2022-10-26T17:36:43.725Z,6.43
2022-10-26T17:41:45.556Z,6.78
2022-10-26T17:46:47.145Z,7.30
2022-10-26T17:51:48.698Z,7.55
2022-10-26T17:56:50.211Z,7.22
2022-10-26T18:01:51.841Z,7.22
2022-10-26T18:06:53.501Z,7.03
2022-10-26T18:11:56.063Z,7.45
2022-10-26T18:16:57.731Z,7.28
2022-10-26T18:22:00.447Z,7.85
2022-10-26T18:27:01.970Z,8.00
2022-10-26T18:32:03.555Z,8.23
2022-10-26T18:37:05.077Z,8.25
2022-10-26T18:42:06.580Z,8.00
2022-10-26T18:47:08.089Z,8.20
2022-10-26T18:52:09.578Z,8.80
2022-10-26T18:57:11.114Z,8.75
2022-10-26T19:02:15.405Z,9.70
2022-10-26T19:07:17.002Z,8.95
2022-10-26T19:12:18.559Z,9.18
2022-10-26T19:17:21.947Z,9.57
2022-10-26T19:22:23.434Z,9.73
2022-10-26T19:27:24.928Z,9.75
2022-10-26T19:32:29.499Z,10.15
2022-10-26T19:37:31.178Z,10.20
2022-10-26T19:42:32.738Z,10.50
2022-10-26T19:47:34.321Z,10.65
2022-10-26T19:52:36.484Z,10.48
2022-10-26T19:57:38.115Z,10.52
2022-10-26T20:02:39.648Z,10.27
2022-10-26T20:07:41.129Z,10.35
2022-10-26T20:12:42.621Z,10.77
2022-10-26T20:17:44.092Z,10.98
2022-10-26T20:22:45.747Z,10.68
2022-10-26T20:27:48.103Z,11.43
2022-10-26T20:32:49.799Z,10.63
2022-10-26T20:37:52.291Z,10.45
2022-10-26T20:42:54.979Z,11.00
2022-10-26T20:47:58.295Z,10.75
2022-10-26T20:53:15.556Z,10.75
2022-10-26T20:58:19.761Z,11.10
2022-10-26T21:03:21.359Z,10.38
2022-10-26T21:08:23.001Z,11.02
2022-10-26T21:13:24.610Z,11.90
2022-10-26T21:18:26.274Z,10.52
2022-10-26T21:23:31.716Z,10.00
2022-10-26T21:28:35.583Z,10.07
2022-10-26T21:33:37.503Z,10.45
2022-10-26T21:38:40.530Z,10.93
2022-10-26T21:43:43.563Z,9.48
2022-10-26T21:48:45.745Z,9.57
2022-10-26T21:53:48.075Z,9.85
2022-10-26T21:58:49.669Z,10.32
2022-10-26T22:03:51.276Z,9.40
2022-10-26T22:08:55.899Z,9.65
2022-10-26T22:13:57.490Z,9.05
2022-10-26T22:19:05.407Z,9.00
2022-10-26T22:24:07.638Z,9.57
2022-10-26T22:29:09.164Z,9.50
2022-10-26T22:34:15.735Z,9.25
2022-10-26T22:39:17.893Z,9.57
2022-10-26T22:44:19.391Z,8.63
2022-10-26T22:49:20.864Z,8.60
2022-10-26T22:54:22.366Z,8.40
2022-10-26T22:59:23.840Z,8.38
2022-10-26T23:04:25.356Z,9.25
2022-10-26T23:09:26.857Z,8.48
2022-10-26T23:14:28.411Z,9.13
2022-10-26T23:19:29.912Z,8.50
2022-10-26T23:24:31.425Z,8.68
2022-10-26T23:29:33.060Z,7.90
2022-10-26T23:34:34.589Z,8.48
2022-10-26T23:39:36.106Z,7.85
2022-10-26T23:44:37.638Z,8.25
2022-10-26T23:49:39.124Z,8.68
2022-10-26T23:54:40.804Z,8.68
2022-10-26T23:59:42.361Z,8.45
